createdAt,value
2023-10-23T00:00:20.509Z,16.40
2023-10-23T00:01:22.200Z,16.42
2023-10-23T00:02:24.177Z,16.39
2023-10-23T00:03:25.916Z,16.35
2023-10-23T00:04:27.740Z,16.37
2023-10-23T00:05:29.954Z,16.38
2023-10-23T00:06:32.277Z,16.42
2023-10-23T00:07:34.124Z,16.43
2023-10-23T00:08:35.976Z,16.44
2023-10-23T00:09:37.647Z,16.48
2023-10-23T00:10:39.298Z,16.47
2023-10-23T00:11:40.993Z,16.48
2023-10-23T00:12:42.724Z,16.46
2023-10-23T00:13:44.312Z,16.41
2023-10-23T00:14:45.915Z,16.34
2023-10-23T00:15:47.905Z,16.34
2023-10-23T00:16:49.568Z,16.27
2023-10-23T00:17:51.291Z,16.25
2023-10-23T00:18:53.655Z,16.24
2023-10-23T00:19:55.314Z,16.24
2023-10-23T00:20:57.370Z,16.28
2023-10-23T00:21:59.031Z,16.28
2023-10-23T00:23:00.602Z,16.26
2023-10-23T00:24:02.159Z,16.28
2023-10-23T00:25:04.569Z,16.29
2023-10-23T00:26:06.915Z,16.29
2023-10-23T00:27:08.547Z,16.32
2023-10-23T00:28:10.245Z,16.35
2023-10-23T00:29:11.901Z,16.32
2023-10-23T00:30:13.900Z,16.30
2023-10-23T00:31:15.554Z,16.25
2023-10-23T00:32:17.267Z,16.29
2023-10-23T00:33:19.068Z,16.24
2023-10-23T00:34:20.903Z,16.10
2023-10-23T00:35:22.826Z,16.13
2023-10-23T00:36:24.565Z,16.16
2023-10-23T00:37:26.308Z,16.19
2023-10-23T00:38:29.972Z,16.17
2023-10-23T00:39:31.711Z,16.20
2023-10-23T00:40:33.392Z,16.18
2023-10-23T00:41:35.029Z,16.16
2023-10-23T00:42:36.705Z,16.17
2023-10-23T00:43:38.311Z,16.17
2023-10-23T00:44:39.909Z,16.19
2023-10-23T00:45:51.231Z,16.19
2023-10-23T00:46:53.683Z,16.13
2023-10-23T00:47:55.808Z,16.17
2023-10-23T00:48:59.592Z,16.15
2023-10-23T00:50:01.474Z,16.12
2023-10-23T00:51:04.302Z,16.04
2023-10-23T00:52:07.023Z,16.08
2023-10-23T00:53:09.069Z,16.10
2023-10-23T00:54:10.796Z,16.10
2023-10-23T00:55:13.164Z,16.10
2023-10-23T00:56:15.086Z,16.11
2023-10-23T00:57:17.025Z,16.12
2023-10-23T00:58:19.737Z,16.11
2023-10-23T00:59:22.296Z,16.13
2023-10-23T01:00:24.198Z,16.18
2023-10-23T01:01:28.005Z,16.23
2023-10-23T01:02:29.947Z,16.24
2023-10-23T01:03:32.611Z,16.27
2023-10-23T01:04:34.237Z,16.28
2023-10-23T01:05:38.325Z,16.32
2023-10-23T01:06:40.308Z,16.29
2023-10-23T01:07:41.990Z,16.31
2023-10-23T01:08:44.226Z,16.39
2023-10-23T01:09:45.927Z,16.41
2023-10-23T01:10:48.364Z,16.42
2023-10-23T01:11:50.133Z,16.45
2023-10-23T01:12:54.615Z,16.44
2023-10-23T01:13:56.275Z,16.45
2023-10-23T01:14:57.917Z,16.42
2023-10-23T01:15:59.492Z,16.49
2023-10-23T01:17:01.153Z,16.50
2023-10-23T01:18:04.140Z,16.53
2023-10-23T01:19:06.155Z,16.52
2023-10-23T01:20:10.792Z,16.53
2023-10-23T01:21:12.416Z,16.55
2023-10-23T01:22:14.000Z,16.60
2023-10-23T01:23:15.729Z,16.61
2023-10-23T01:24:18.084Z,16.62
2023-10-23T01:25:19.687Z,16.62
2023-10-23T01:26:21.317Z,16.62
2023-10-23T01:27:22.959Z,16.64
2023-10-23T01:28:24.591Z,16.67
2023-10-23T01:29:26.184Z,16.71
2023-10-23T01:30:27.788Z,16.69
2023-10-23T01:31:29.359Z,16.71
2023-10-23T01:32:30.990Z,16.67
2023-10-23T01:33:32.700Z,16.68
2023-10-23T01:34:34.364Z,16.68
2023-10-23T01:35:36.012Z,16.68
2023-10-23T01:36:39.151Z,16.67
2023-10-23T01:37:43.919Z,16.68
2023-10-23T01:38:45.545Z,16.65
2023-10-23T01:39:47.153Z,16.68
2023-10-23T01:40:48.810Z,16.66
2023-10-23T01:41:50.427Z,16.68
2023-10-23T01:42:52.108Z,16.69
2023-10-23T01:43:53.707Z,16.68
2023-10-23T01:44:58.805Z,16.67
2023-10-23T01:46:00.879Z,16.60
2023-10-23T01:47:02.896Z,16.66
2023-10-23T01:48:05.081Z,16.66
2023-10-23T01:49:06.798Z,16.64
2023-10-23T01:50:08.670Z,16.66
2023-10-23T01:51:10.781Z,16.61
2023-10-23T01:52:12.379Z,16.66
2023-10-23T01:53:14.525Z,16.65
2023-10-23T01:54:16.225Z,16.64
2023-10-23T01:55:18.171Z,16.66
2023-10-23T01:56:19.763Z,16.64
2023-10-23T01:57:21.869Z,16.66
2023-10-23T01:58:23.473Z,16.59
2023-10-23T01:59:25.061Z,16.61
2023-10-23T02:00:26.963Z,16.62
2023-10-23T02:01:28.911Z,16.64
2023-10-23T02:02:31.274Z,16.54
2023-10-23T02:03:33.334Z,16.54
2023-10-23T02:04:39.993Z,16.46
2023-10-23T02:05:41.873Z,16.46
2023-10-23T02:06:43.692Z,16.44
2023-10-23T02:07:45.378Z,16.41
2023-10-23T02:08:47.042Z,16.38
2023-10-23T02:09:48.663Z,16.31
2023-10-23T02:10:50.264Z,16.31
2023-10-23T02:11:51.868Z,16.29
2023-10-23T02:12:53.563Z,16.21
2023-10-23T02:13:55.382Z,16.25
2023-10-23T02:14:57.552Z,16.22
2023-10-23T02:15:59.277Z,16.27
2023-10-23T02:17:00.944Z,16.24
2023-10-23T02:18:02.674Z,16.18
2023-10-23T02:19:04.675Z,16.05
2023-10-23T02:20:06.703Z,16.06
2023-10-23T02:21:08.586Z,16.03
2023-10-23T02:22:10.238Z,15.99
2023-10-23T02:23:11.807Z,16.00
2023-10-23T02:24:13.392Z,15.94
2023-10-23T02:25:17.852Z,15.91
2023-10-23T02:26:19.760Z,15.87
2023-10-23T02:27:21.421Z,15.78
2023-10-23T02:28:23.182Z,15.83
2023-10-23T02:29:24.795Z,15.80
2023-10-23T02:30:26.477Z,15.89
2023-10-23T02:31:28.160Z,15.72
2023-10-23T02:32:29.850Z,15.87
2023-10-23T02:33:32.004Z,15.93
2023-10-23T02:34:34.338Z,15.97
2023-10-23T02:35:37.573Z,15.96
2023-10-23T02:36:39.217Z,15.93
2023-10-23T02:37:40.828Z,16.01
2023-10-23T02:38:43.341Z,16.08
2023-10-23T02:39:45.060Z,16.09
2023-10-23T02:40:53.834Z,16.15
2023-10-23T02:41:55.429Z,16.18
2023-10-23T02:42:57.134Z,16.19
2023-10-23T02:43:58.940Z,16.18
2023-10-23T02:45:00.599Z,16.20
2023-10-23T02:46:03.036Z,16.19
2023-10-23T02:47:04.891Z,16.20
2023-10-23T02:48:06.744Z,16.22
2023-10-23T02:49:08.517Z,16.20
2023-10-23T02:50:10.545Z,16.18
2023-10-23T02:51:12.145Z,16.22
2023-10-23T02:52:14.127Z,15.97
2023-10-23T02:53:15.727Z,16.24
2023-10-23T02:54:17.543Z,16.26
2023-10-23T02:55:19.271Z,16.25
2023-10-23T02:56:20.962Z,16.22
2023-10-23T02:57:22.621Z,16.20
2023-10-23T02:58:24.257Z,16.21
2023-10-23T02:59:25.874Z,16.20
2023-10-23T03:00:27.724Z,16.22
2023-10-23T03:01:29.402Z,16.21
2023-10-23T03:02:31.024Z,16.18
2023-10-23T03:03:32.699Z,16.12
2023-10-23T03:04:34.661Z,16.15
2023-10-23T03:05:36.308Z,16.13
2023-10-23T03:06:37.983Z,16.19
2023-10-23T03:07:39.589Z,16.22
2023-10-23T03:08:41.699Z,16.14
2023-10-23T03:09:43.446Z,16.10
2023-10-23T03:10:45.096Z,16.11
2023-10-23T03:11:46.730Z,16.14
2023-10-23T03:12:48.401Z,16.15
2023-10-23T03:13:51.520Z,16.20
2023-10-23T03:14:53.351Z,16.13
2023-10-23T03:15:55.023Z,16.18
2023-10-23T03:16:56.768Z,16.17
2023-10-23T03:17:58.598Z,16.17
2023-10-23T03:19:00.587Z,16.21
2023-10-23T03:20:02.337Z,16.21
2023-10-23T03:21:04.555Z,16.16
2023-10-23T03:22:06.134Z,16.25
2023-10-23T03:23:07.838Z,16.24
2023-10-23T03:24:09.854Z,16.26
2023-10-23T03:25:11.554Z,16.25
2023-10-23T03:26:13.210Z,16.27
2023-10-23T03:27:14.900Z,16.24
2023-10-23T03:28:16.481Z,16.25
2023-10-23T03:29:18.260Z,16.28
2023-10-23T03:30:19.990Z,16.29
2023-10-23T03:31:21.688Z,16.30
2023-10-23T03:32:23.402Z,16.28
2023-10-23T03:33:25.015Z,16.29
2023-10-23T03:34:26.685Z,16.27
2023-10-23T03:35:28.272Z,16.26
2023-10-23T03:36:30.022Z,16.22
2023-10-23T03:37:32.008Z,16.23
2023-10-23T03:38:33.637Z,16.21
2023-10-23T03:39:35.946Z,16.22
2023-10-23T03:40:38.426Z,16.20
2023-10-23T03:41:39.996Z,16.22
2023-10-23T03:42:41.651Z,16.15
2023-10-23T03:43:43.333Z,16.17
2023-10-23T03:44:44.967Z,16.17
2023-10-23T03:45:46.605Z,16.11
2023-10-23T03:46:48.301Z,16.11
2023-10-23T03:47:50.006Z,16.02
2023-10-23T03:48:53.446Z,16.05
2023-10-23T03:49:55.152Z,16.04
2023-10-23T03:51:00.858Z,15.99
2023-10-23T03:52:02.442Z,15.95
2023-10-23T03:53:04.078Z,15.91
2023-10-23T03:54:05.739Z,15.88
2023-10-23T03:55:07.693Z,15.88
2023-10-23T03:56:09.354Z,15.89
2023-10-23T03:57:10.980Z,15.90
2023-10-23T03:58:12.550Z,15.90
2023-10-23T03:59:14.178Z,15.89
2023-10-23T04:00:16.224Z,15.88
2023-10-23T04:01:17.883Z,15.86
2023-10-23T04:02:19.460Z,15.87
2023-10-23T04:03:21.271Z,15.83
2023-10-23T04:04:23.050Z,15.86
2023-10-23T04:05:24.747Z,15.84
2023-10-23T04:06:26.404Z,15.82
2023-10-23T04:07:28.011Z,15.77
2023-10-23T04:08:29.592Z,15.74
2023-10-23T04:09:32.616Z,15.67
2023-10-23T04:10:34.274Z,15.57
2023-10-23T04:11:35.907Z,15.57
2023-10-23T04:12:37.763Z,15.59
2023-10-23T04:13:39.394Z,15.62
2023-10-23T04:14:40.976Z,15.58
2023-10-23T04:15:53.128Z,15.53
2023-10-23T04:16:54.749Z,15.56
2023-10-23T04:17:56.384Z,15.41
2023-10-23T04:18:58.045Z,15.53
2023-10-23T04:19:59.647Z,15.54
2023-10-23T04:21:09.419Z,15.51
2023-10-23T04:22:11.040Z,15.50
2023-10-23T04:23:12.630Z,15.50
2023-10-23T04:24:14.798Z,15.46
2023-10-23T04:25:19.008Z,15.46
2023-10-23T04:26:20.650Z,15.38
2023-10-23T04:27:22.327Z,15.38
2023-10-23T04:28:24.022Z,15.35
2023-10-23T04:29:25.604Z,15.33
2023-10-23T04:30:27.273Z,15.25
2023-10-23T04:31:28.989Z,15.22
2023-10-23T04:32:31.068Z,15.16
2023-10-23T04:33:33.456Z,15.20
2023-10-23T04:34:37.331Z,15.18
2023-10-23T04:35:38.921Z,15.17
2023-10-23T04:36:40.706Z,15.21
2023-10-23T04:37:42.280Z,15.22
2023-10-23T04:38:43.983Z,15.24
2023-10-23T04:39:45.902Z,15.25
2023-10-23T04:40:48.082Z,15.26
2023-10-23T04:41:49.764Z,15.27
2023-10-23T04:42:51.398Z,15.29
2023-10-23T04:43:53.045Z,15.23
2023-10-23T04:44:54.734Z,15.21
2023-10-23T04:45:58.162Z,15.26
2023-10-23T04:46:59.898Z,15.26
2023-10-23T04:48:01.634Z,15.26
2023-10-23T04:49:03.779Z,15.20
2023-10-23T04:50:08.506Z,15.22
2023-10-23T04:51:11.122Z,15.21
2023-10-23T04:52:12.727Z,15.28
2023-10-23T04:53:14.356Z,15.33
2023-10-23T04:54:15.915Z,15.36
2023-10-23T04:55:17.806Z,15.41
2023-10-23T04:56:19.434Z,15.43
2023-10-23T04:57:21.052Z,15.42
2023-10-23T04:58:22.776Z,15.43
2023-10-23T04:59:25.593Z,15.44
2023-10-23T05:00:27.785Z,15.45
2023-10-23T05:01:29.538Z,15.47
2023-10-23T05:02:31.196Z,15.47
2023-10-23T05:03:33.298Z,15.45
2023-10-23T05:04:35.123Z,15.46
2023-10-23T05:05:37.569Z,15.49
2023-10-23T05:06:39.611Z,15.50
2023-10-23T05:07:41.265Z,15.49
2023-10-23T05:08:42.937Z,15.48
2023-10-23T05:09:44.628Z,15.49
2023-10-23T05:10:46.299Z,15.51
2023-10-23T05:11:47.863Z,15.52
2023-10-23T05:12:51.089Z,15.52
2023-10-23T05:13:53.183Z,15.47
2023-10-23T05:14:55.110Z,15.53
2023-10-23T05:16:06.335Z,15.54
2023-10-23T05:17:08.514Z,15.53
2023-10-23T05:18:10.108Z,15.52
2023-10-23T05:19:11.794Z,15.57
2023-10-23T05:20:13.814Z,15.59
2023-10-23T05:21:15.714Z,15.62
2023-10-23T05:22:17.420Z,15.65
2023-10-23T05:23:19.006Z,15.61
2023-10-23T05:24:20.573Z,15.70
2023-10-23T05:25:22.182Z,15.75
2023-10-23T05:26:23.772Z,15.73
2023-10-23T05:27:25.902Z,15.79
2023-10-23T05:28:27.558Z,15.81
2023-10-23T05:29:29.108Z,15.83
2023-10-23T05:30:30.729Z,15.88
2023-10-23T05:31:32.426Z,15.90
2023-10-23T05:32:36.174Z,15.92
2023-10-23T05:33:38.302Z,15.96
2023-10-23T05:34:40.090Z,15.99
2023-10-23T05:35:41.647Z,15.97
2023-10-23T05:36:43.256Z,16.01
2023-10-23T05:37:44.913Z,16.06
2023-10-23T05:38:46.680Z,16.10
2023-10-23T05:39:48.312Z,16.13
2023-10-23T05:40:57.263Z,16.20
2023-10-23T05:41:58.881Z,16.25
2023-10-23T05:43:00.675Z,16.32
2023-10-23T05:44:02.272Z,16.39
2023-10-23T05:45:04.406Z,16.41
2023-10-23T05:46:06.514Z,16.48
2023-10-23T05:47:08.248Z,16.52
2023-10-23T05:48:09.836Z,16.53
2023-10-23T05:49:11.650Z,16.56
2023-10-23T05:50:13.259Z,16.60
2023-10-23T05:51:14.839Z,16.61
2023-10-23T05:52:16.446Z,16.67
2023-10-23T05:53:18.024Z,16.69
2023-10-23T05:54:19.578Z,16.72
2023-10-23T05:55:22.175Z,16.72
2023-10-23T05:56:23.765Z,16.75
2023-10-23T05:57:25.343Z,16.78
2023-10-23T05:58:26.928Z,16.79
2023-10-23T05:59:28.502Z,16.86
2023-10-23T06:00:30.223Z,16.87
2023-10-23T06:01:31.833Z,16.87
2023-10-23T06:02:33.506Z,16.89
2023-10-23T06:03:35.887Z,16.92
2023-10-23T06:04:37.873Z,16.92
2023-10-23T06:05:43.291Z,16.94
2023-10-23T06:06:45.014Z,16.97
2023-10-23T06:07:46.833Z,17.02
2023-10-23T06:08:48.586Z,17.07
2023-10-23T06:09:50.203Z,17.12
2023-10-23T06:10:51.896Z,17.19
2023-10-23T06:11:53.525Z,17.23
2023-10-23T06:12:55.131Z,17.27
2023-10-23T06:13:56.796Z,17.35
2023-10-23T06:15:00.173Z,17.37
2023-10-23T06:16:06.299Z,17.41
2023-10-23T06:17:08.913Z,17.44
2023-10-23T06:18:10.506Z,17.53
2023-10-23T06:19:12.052Z,17.61
2023-10-23T06:20:13.723Z,17.68
2023-10-23T06:21:15.377Z,17.71
2023-10-23T06:22:17.038Z,17.79
2023-10-23T06:23:18.585Z,17.84
2023-10-23T06:24:20.201Z,17.92
2023-10-23T06:25:21.802Z,17.95
2023-10-23T06:26:24.606Z,18.02
2023-10-23T06:27:26.311Z,18.07
2023-10-23T06:28:28.243Z,18.16
2023-10-23T06:29:29.829Z,18.23
2023-10-23T06:30:31.603Z,18.30
2023-10-23T06:31:33.422Z,18.40
2023-10-23T06:32:35.856Z,18.50
2023-10-23T06:33:40.224Z,18.55
2023-10-23T06:34:41.983Z,18.62
2023-10-23T06:35:43.633Z,18.63
2023-10-23T06:36:45.245Z,18.77
2023-10-23T06:37:46.953Z,18.82
2023-10-23T06:38:48.603Z,18.88
2023-10-23T06:39:50.364Z,18.96
2023-10-23T06:40:52.018Z,19.05
2023-10-23T06:41:53.831Z,19.14
2023-10-23T06:42:55.445Z,19.17
2023-10-23T06:43:57.006Z,19.28
2023-10-23T06:44:58.691Z,19.37
2023-10-23T06:46:02.109Z,19.46
2023-10-23T06:47:04.622Z,19.59
2023-10-23T06:48:06.539Z,19.68
2023-10-23T06:49:08.301Z,19.79
2023-10-23T06:50:11.891Z,19.87
2023-10-23T06:51:14.727Z,20.00
2023-10-23T06:52:16.437Z,20.16
2023-10-23T06:53:18.493Z,20.37
2023-10-23T06:54:22.868Z,20.60
2023-10-23T06:55:25.863Z,20.76
2023-10-23T06:56:27.515Z,21.06
2023-10-23T06:57:29.087Z,21.38
2023-10-23T06:58:30.716Z,21.58
2023-10-23T06:59:32.354Z,21.87
2023-10-23T07:00:33.946Z,22.16
2023-10-23T07:01:44.334Z,22.40
2023-10-23T07:02:49.973Z,22.74
2023-10-23T07:03:52.258Z,23.03
2023-10-23T07:04:54.161Z,23.22
2023-10-23T07:05:55.823Z,23.51
2023-10-23T07:06:57.797Z,23.73
2023-10-23T07:07:59.402Z,23.85
2023-10-23T07:09:01.057Z,24.08
2023-10-23T07:10:04.848Z,24.37
2023-10-23T07:11:17.354Z,24.77
2023-10-23T07:12:18.983Z,25.11
2023-10-23T07:13:23.076Z,25.39
2023-10-23T07:14:25.020Z,25.81
2023-10-23T07:15:26.713Z,26.12
2023-10-23T07:16:28.513Z,26.15
2023-10-23T07:17:30.885Z,26.27
2023-10-23T07:18:32.708Z,26.32
2023-10-23T07:19:34.419Z,26.55
2023-10-23T07:20:35.977Z,26.81
2023-10-23T07:21:38.001Z,27.11
2023-10-23T07:22:39.595Z,27.37
2023-10-23T07:23:41.252Z,27.66
2023-10-23T07:24:42.899Z,27.92
2023-10-23T07:25:44.537Z,28.03
2023-10-23T07:26:46.169Z,28.28
2023-10-23T07:27:48.450Z,28.58
2023-10-23T07:28:50.254Z,28.85
2023-10-23T07:29:52.216Z,29.02
2023-10-23T07:30:56.237Z,29.10
2023-10-23T07:31:57.831Z,29.26
2023-10-23T07:33:00.785Z,29.36
2023-10-23T07:34:04.869Z,29.49
2023-10-23T07:35:09.372Z,29.69
2023-10-23T07:36:12.658Z,30.10
2023-10-23T07:37:19.460Z,30.15
2023-10-23T07:38:21.295Z,30.10
2023-10-23T07:39:22.850Z,30.27
2023-10-23T07:40:24.461Z,30.38
2023-10-23T07:41:26.150Z,30.44
2023-10-23T07:42:27.793Z,30.51
2023-10-23T07:43:30.278Z,30.66
2023-10-23T07:44:31.883Z,30.83
2023-10-23T07:45:38.198Z,31.00
2023-10-23T07:46:40.331Z,31.19
2023-10-23T07:47:42.105Z,31.25
2023-10-23T07:48:43.796Z,31.48
2023-10-23T07:49:45.906Z,31.64
2023-10-23T07:50:47.442Z,31.65
2023-10-23T07:51:49.111Z,31.63
2023-10-23T07:52:51.731Z,31.58
2023-10-23T07:53:53.289Z,31.76
2023-10-23T07:54:54.995Z,31.83
2023-10-23T07:55:56.648Z,32.02
2023-10-23T07:56:58.692Z,32.28
2023-10-23T07:58:01.411Z,32.42
2023-10-23T07:59:03.541Z,32.65
2023-10-23T08:00:07.367Z,32.73
2023-10-23T08:01:11.482Z,32.77
2023-10-23T08:02:13.268Z,32.94
2023-10-23T08:03:15.080Z,32.96
2023-10-23T08:04:17.853Z,33.04
2023-10-23T08:05:19.688Z,33.19
2023-10-23T08:06:21.400Z,33.26
2023-10-23T08:07:23.027Z,33.41
2023-10-23T08:08:24.635Z,33.31
2023-10-23T08:09:26.377Z,32.93
2023-10-23T08:10:28.012Z,32.78
2023-10-23T08:11:29.609Z,32.46
2023-10-23T08:12:31.266Z,32.04
2023-10-23T08:13:33.795Z,31.88
2023-10-23T08:14:35.466Z,31.80
2023-10-23T08:15:39.418Z,31.74
2023-10-23T08:16:41.158Z,31.70
2023-10-23T08:17:43.339Z,31.77
2023-10-23T08:18:45.083Z,31.92
2023-10-23T08:19:46.896Z,31.98
2023-10-23T08:20:48.630Z,32.35
2023-10-23T08:21:50.368Z,32.74
2023-10-23T08:22:52.011Z,33.17
2023-10-23T08:23:59.492Z,33.45
2023-10-23T08:25:01.198Z,33.69
2023-10-23T08:26:02.911Z,33.94
2023-10-23T08:27:04.689Z,34.15
2023-10-23T08:28:06.312Z,34.46
2023-10-23T08:29:08.036Z,34.75
2023-10-23T08:30:10.152Z,34.91
2023-10-23T08:31:24.652Z,35.10
2023-10-23T08:32:34.314Z,35.22
2023-10-23T08:33:39.665Z,35.20
2023-10-23T08:34:41.349Z,35.10
2023-10-23T08:35:42.962Z,35.11
2023-10-23T08:36:44.666Z,34.90
2023-10-23T08:37:46.716Z,34.73
2023-10-23T08:38:48.626Z,34.76
2023-10-23T08:39:50.231Z,34.78
2023-10-23T08:40:52.168Z,34.77
2023-10-23T08:41:55.571Z,34.73
2023-10-23T08:42:57.261Z,34.84
2023-10-23T08:43:59.235Z,34.96
2023-10-23T08:45:01.145Z,35.16
2023-10-23T08:46:02.893Z,35.32
2023-10-23T08:47:05.068Z,35.45
2023-10-23T08:48:06.967Z,35.67
2023-10-23T08:49:08.782Z,35.93
2023-10-23T08:50:11.617Z,36.08
2023-10-23T08:51:15.799Z,36.17
2023-10-23T08:52:20.692Z,36.05
2023-10-23T08:53:25.668Z,36.02
2023-10-23T08:54:28.565Z,36.04
2023-10-23T08:55:30.385Z,36.05
2023-10-23T08:56:40.363Z,36.05
2023-10-23T08:57:53.723Z,35.90
2023-10-23T08:59:00.787Z,35.89
2023-10-23T09:00:02.575Z,35.84
2023-10-23T09:01:04.837Z,35.75
2023-10-23T09:02:06.808Z,35.64
2023-10-23T09:03:11.267Z,35.65
2023-10-23T09:04:13.585Z,35.71
2023-10-23T09:05:15.652Z,35.79
2023-10-23T09:06:19.367Z,35.86
2023-10-23T09:07:21.056Z,35.65
2023-10-23T09:08:22.682Z,35.62
2023-10-23T09:09:25.380Z,35.61
2023-10-23T09:10:27.488Z,35.44
2023-10-23T09:11:39.786Z,35.14
2023-10-23T09:12:41.706Z,34.93
2023-10-23T09:13:43.396Z,34.81
2023-10-23T09:14:45.228Z,34.85
2023-10-23T09:15:52.855Z,34.92
2023-10-23T09:16:57.050Z,34.90
2023-10-23T09:18:00.105Z,34.86
2023-10-23T09:19:01.852Z,34.91
2023-10-23T09:20:20.198Z,34.90
2023-10-23T09:21:23.043Z,34.66
2023-10-23T09:22:29.355Z,34.61
2023-10-23T09:23:31.012Z,34.67
2023-10-23T09:24:32.904Z,34.64
2023-10-23T09:25:34.910Z,34.26
2023-10-23T09:26:36.524Z,33.91
2023-10-23T09:27:38.147Z,33.59
2023-10-23T09:28:39.715Z,33.41
2023-10-23T09:29:41.468Z,33.35
2023-10-23T09:30:43.720Z,33.36
2023-10-23T09:31:45.451Z,33.57
2023-10-23T09:32:54.542Z,33.74
2023-10-23T09:33:56.696Z,33.90
2023-10-23T09:34:58.447Z,34.01
2023-10-23T09:36:02.244Z,34.07
2023-10-23T09:37:04.117Z,34.04
2023-10-23T09:38:16.306Z,34.13
2023-10-23T09:39:23.787Z,34.15
2023-10-23T09:40:25.797Z,34.18
2023-10-23T09:41:28.755Z,34.10
2023-10-23T09:42:33.396Z,34.29
2023-10-23T09:43:35.850Z,34.40
2023-10-23T09:44:40.084Z,34.50
2023-10-23T09:45:43.510Z,34.73
2023-10-23T09:46:49.430Z,34.89
2023-10-23T09:47:56.067Z,34.54
2023-10-23T09:49:01.715Z,34.42
2023-10-23T09:50:05.125Z,34.37
2023-10-23T09:51:08.608Z,34.42
2023-10-23T09:52:11.322Z,34.51
2023-10-23T09:53:14.283Z,34.70
2023-10-23T09:54:19.017Z,34.88
2023-10-23T09:55:24.229Z,35.02
2023-10-23T09:56:31.868Z,35.03
2023-10-23T09:57:35.248Z,35.29
2023-10-23T09:58:41.885Z,35.54
2023-10-23T09:59:49.785Z,35.71
2023-10-23T10:00:57.015Z,35.93
2023-10-23T10:02:01.958Z,36.17
2023-10-23T10:03:09.572Z,36.38
2023-10-23T10:04:21.863Z,36.59
2023-10-23T10:05:39.091Z,36.81
2023-10-23T10:06:46.870Z,36.93
2023-10-23T10:08:04.383Z,37.06
2023-10-23T10:09:13.446Z,37.17
2023-10-23T10:10:15.998Z,36.90
2023-10-23T10:11:19.435Z,36.97
2023-10-23T10:12:22.367Z,37.06
2023-10-23T10:13:24.790Z,37.07
2023-10-23T10:14:28.461Z,36.90
2023-10-23T10:15:32.468Z,36.84
2023-10-23T10:16:35.089Z,36.56
2023-10-23T10:17:38.367Z,36.53
2023-10-23T10:18:40.680Z,36.41
2023-10-23T10:19:42.873Z,36.07
2023-10-23T10:20:48.389Z,36.05
2023-10-23T10:22:16.091Z,35.34
2023-10-23T10:23:19.491Z,35.36
2023-10-23T10:24:22.109Z,35.55
2023-10-23T10:25:26.285Z,35.67
2023-10-23T10:26:28.134Z,35.49
2023-10-23T10:27:29.879Z,35.35
2023-10-23T10:28:31.680Z,35.32
2023-10-23T10:29:33.368Z,35.39
2023-10-23T10:30:48.083Z,35.53
2023-10-23T10:32:13.934Z,35.66
2023-10-23T10:34:24.350Z,35.86
2023-10-23T10:34:46.446Z,35.89
2023-10-23T10:35:51.447Z,35.60
2023-10-23T10:36:54.725Z,35.49
2023-10-23T10:38:00.666Z,35.58
2023-10-23T10:39:02.314Z,35.67
2023-10-23T10:40:06.159Z,35.69
2023-10-23T10:41:14.014Z,35.60
2023-10-23T10:42:23.139Z,35.34
2023-10-23T10:43:38.812Z,35.18
2023-10-23T10:45:03.117Z,34.88
2023-10-23T10:46:24.613Z,34.73
2023-10-23T10:47:38.357Z,34.71
2023-10-23T10:48:45.317Z,34.71
2023-10-23T10:49:48.141Z,34.70
2023-10-23T10:50:49.743Z,34.66
2023-10-23T10:51:52.102Z,34.59
2023-10-23T10:52:53.710Z,34.60
2023-10-23T10:54:18.233Z,34.45
2023-10-23T10:55:19.938Z,34.05
2023-10-23T10:56:21.824Z,33.94
2023-10-23T10:57:23.636Z,33.91
2023-10-23T10:58:25.800Z,33.82
2023-10-23T10:59:27.763Z,33.61
2023-10-23T11:00:30.972Z,33.59
2023-10-23T11:01:34.147Z,33.48
2023-10-23T11:02:36.205Z,33.39
2023-10-23T11:03:38.248Z,33.17
2023-10-23T11:04:40.061Z,32.96
2023-10-23T11:05:45.827Z,32.80
2023-10-23T11:06:47.450Z,32.81
2023-10-23T11:07:50.772Z,32.78
2023-10-23T11:08:52.920Z,32.62
2023-10-23T11:09:55.330Z,32.26
2023-10-23T11:11:05.946Z,31.96
2023-10-23T11:12:08.134Z,31.80
2023-10-23T11:13:14.603Z,31.81
2023-10-23T11:14:16.694Z,31.57
2023-10-23T11:15:19.335Z,31.59
2023-10-23T11:16:21.912Z,31.51
2023-10-23T11:17:24.402Z,31.33
2023-10-23T11:18:26.623Z,31.18
2023-10-23T11:19:28.855Z,30.95
2023-10-23T11:20:32.598Z,30.79
2023-10-23T11:21:34.385Z,30.81
2023-10-23T11:22:39.446Z,30.75
2023-10-23T11:23:41.064Z,30.61
2023-10-23T11:24:43.603Z,30.47
2023-10-23T11:25:49.917Z,30.38
2023-10-23T11:26:51.462Z,30.33
2023-10-23T11:27:53.487Z,30.27
2023-10-23T11:28:55.136Z,30.10
2023-10-23T11:29:56.861Z,29.93
2023-10-23T11:31:01.375Z,29.74
2023-10-23T11:32:05.118Z,29.66
2023-10-23T11:33:08.837Z,29.55
2023-10-23T11:34:13.313Z,29.43
2023-10-23T11:35:14.910Z,29.39
2023-10-23T11:36:18.528Z,29.34
2023-10-23T11:37:20.671Z,29.12
2023-10-23T11:38:25.353Z,29.07
2023-10-23T11:39:32.117Z,29.04
2023-10-23T11:40:36.093Z,29.10
2023-10-23T11:41:37.716Z,29.06
2023-10-23T11:42:50.819Z,29.10
2023-10-23T11:44:01.298Z,29.09
2023-10-23T11:45:03.969Z,29.00
2023-10-23T11:46:06.044Z,29.01
2023-10-23T11:47:09.141Z,28.91
2023-10-23T11:48:13.413Z,28.72
2023-10-23T11:49:19.628Z,28.73
2023-10-23T11:50:23.038Z,28.62
2023-10-23T11:51:25.372Z,28.56
2023-10-23T11:52:27.008Z,28.39
2023-10-23T11:53:34.160Z,28.36
2023-10-23T11:54:35.744Z,28.29
2023-10-23T11:55:39.164Z,28.14
2023-10-23T11:56:43.900Z,28.05
2023-10-23T11:57:52.099Z,27.87
2023-10-23T11:58:56.102Z,27.88
2023-10-23T11:59:57.720Z,27.92
2023-10-23T12:00:59.418Z,27.72
2023-10-23T12:02:02.883Z,27.63
2023-10-23T12:03:07.729Z,27.64
2023-10-23T12:04:09.782Z,27.69
2023-10-23T12:05:13.444Z,27.73
2023-10-23T12:06:15.211Z,27.67
2023-10-23T12:07:16.885Z,27.66
2023-10-23T12:08:18.545Z,27.64
2023-10-23T12:09:20.273Z,27.63
2023-10-23T12:10:26.694Z,27.50
2023-10-23T12:11:29.849Z,27.54
2023-10-23T12:12:31.413Z,27.58
2023-10-23T12:13:33.146Z,27.56
2023-10-23T12:14:34.743Z,27.48
2023-10-23T12:15:36.337Z,27.50
2023-10-23T12:16:38.046Z,27.40
2023-10-23T12:17:40.487Z,27.40
2023-10-23T12:18:42.826Z,27.34
2023-10-23T12:19:44.430Z,27.34
2023-10-23T12:20:46.059Z,27.40
2023-10-23T12:21:47.723Z,27.41
2023-10-23T12:22:50.160Z,27.42
2023-10-23T12:23:52.380Z,27.48
2023-10-23T12:24:53.982Z,27.52
2023-10-23T12:25:55.767Z,27.57
2023-10-23T12:26:59.100Z,27.60
2023-10-23T12:28:00.931Z,27.60
2023-10-23T12:29:06.361Z,27.38
2023-10-23T12:30:10.139Z,27.34
2023-10-23T12:31:23.535Z,27.30
2023-10-23T12:33:13.959Z,27.21
2023-10-23T12:33:50.286Z,27.22
2023-10-23T12:34:52.143Z,27.21
2023-10-23T12:35:53.937Z,27.13
2023-10-23T12:36:55.628Z,27.18
2023-10-23T12:37:57.225Z,27.16
2023-10-23T12:38:58.797Z,27.15
2023-10-23T12:40:03.937Z,27.14
2023-10-23T12:41:05.592Z,27.18
2023-10-23T12:42:07.274Z,27.12
2023-10-23T12:43:09.007Z,27.09
2023-10-23T12:44:10.654Z,26.99
2023-10-23T12:45:12.332Z,27.06
2023-10-23T12:46:14.026Z,27.04
2023-10-23T12:47:15.895Z,27.06
2023-10-23T12:48:17.945Z,27.03
2023-10-23T12:49:19.610Z,27.05
2023-10-23T12:50:21.641Z,27.02
2023-10-23T12:51:23.642Z,27.00
2023-10-23T12:52:25.289Z,27.00
2023-10-23T12:53:27.069Z,26.95
2023-10-23T12:54:28.784Z,26.86
2023-10-23T12:55:30.466Z,26.81
2023-10-23T12:56:33.014Z,26.81
2023-10-23T12:57:34.601Z,26.75
2023-10-23T12:58:36.372Z,26.75
2023-10-23T12:59:38.125Z,26.71
2023-10-23T13:00:39.913Z,26.74
2023-10-23T13:01:41.634Z,26.73
2023-10-23T13:02:44.086Z,26.73
2023-10-23T13:03:48.433Z,26.72
2023-10-23T13:04:50.258Z,26.77
2023-10-23T13:05:52.012Z,26.85
2023-10-23T13:06:54.762Z,26.86
2023-10-23T13:07:56.613Z,26.89
2023-10-23T13:08:58.217Z,26.81
2023-10-23T13:09:59.791Z,26.76
2023-10-23T13:11:02.104Z,26.71
2023-10-23T13:12:04.115Z,26.65
2023-10-23T13:13:05.723Z,26.61
2023-10-23T13:14:07.320Z,26.58
2023-10-23T13:15:09.332Z,26.50
2023-10-23T13:16:11.907Z,26.52
2023-10-23T13:17:15.368Z,26.57
2023-10-23T13:18:17.038Z,26.59
2023-10-23T13:19:19.429Z,26.58
2023-10-23T13:21:30.612Z,26.56
2023-10-23T13:21:42.694Z,26.52
2023-10-23T13:22:46.747Z,26.59
2023-10-23T13:23:52.642Z,26.64
2023-10-23T13:24:54.318Z,26.67
2023-10-23T13:26:10.192Z,26.69
2023-10-23T13:27:16.885Z,26.70
2023-10-23T13:28:18.547Z,26.72
2023-10-23T13:29:21.022Z,26.77
2023-10-23T13:30:22.989Z,26.82